createdAt,value
2017-11-26T00:01:38.999Z,20.00
2017-11-26T00:04:05.469Z,25.25
2017-11-26T00:06:31.920Z,22.55
2017-11-26T00:08:59.832Z,25.70
2017-11-26T00:11:26.284Z,14.50
2017-11-26T00:13:52.765Z,22.80
2017-11-26T00:16:19.238Z,25.67
2017-11-26T00:18:45.656Z,23.87
2017-11-26T00:21:12.965Z,27.50
2017-11-26T00:23:39.423Z,12.32
2017-11-26T00:26:05.919Z,9.23
2017-11-26T00:28:32.382Z,17.55
2017-11-26T00:30:58.786Z,16.15
2017-11-26T00:33:26.018Z,11.05
2017-11-26T00:35:52.498Z,12.43
2017-11-26T00:38:18.933Z,16.87
2017-11-26T00:40:45.362Z,16.12
2017-11-26T00:43:12.505Z,19.75
2017-11-26T00:45:39.689Z,17.67
2017-11-26T00:48:06.121Z,21.27
2017-11-26T00:50:32.584Z,24.25
2017-11-26T00:52:59.013Z,21.77
2017-11-26T00:55:25.516Z,25.17
2017-11-26T00:57:52.726Z,22.77
2017-11-26T01:00:19.158Z,21.58
2017-11-26T01:02:45.711Z,13.25
2017-11-26T01:05:12.173Z,10.73
2017-11-26T01:07:38.617Z,6.93
2017-11-26T01:10:05.138Z,8.80
2017-11-26T01:12:31.574Z,8.48
2017-11-26T01:14:57.987Z,7.70
2017-11-26T01:17:24.471Z,10.65
2017-11-26T01:19:50.907Z,10.13
2017-11-26T01:22:24.224Z,8.00
2017-11-26T01:24:51.430Z,8.50
2017-11-26T01:27:17.846Z,5.25
2017-11-26T01:29:44.298Z,3.05
2017-11-26T01:32:17.887Z,8.70
2017-11-26T01:34:44.345Z,9.98
2017-11-26T01:37:10.757Z,7.60
2017-11-26T01:39:37.252Z,9.20
2017-11-26T01:42:03.740Z,11.10
2017-11-26T01:44:30.204Z,12.98
2017-11-26T01:46:56.853Z,4.90
2017-11-26T01:49:23.279Z,10.32
2017-11-26T01:51:49.708Z,8.93
2017-11-26T01:54:16.277Z,8.43
2017-11-26T01:56:42.748Z,11.25
2017-11-26T01:59:09.888Z,11.52
2017-11-26T02:01:36.328Z,6.82
2017-11-26T02:04:03.505Z,13.38
2017-11-26T02:06:30.697Z,13.13
2017-11-26T02:08:57.205Z,8.98
2017-11-26T02:11:24.360Z,9.30
2017-11-26T02:13:50.833Z,6.75
2017-11-26T02:16:17.350Z,10.45
2017-11-26T02:18:43.823Z,9.38
2017-11-26T02:21:10.233Z,9.98
2017-11-26T02:23:36.748Z,8.73
2017-11-26T02:26:03.189Z,9.10
2017-11-26T02:28:30.413Z,8.63
2017-11-26T02:30:56.849Z,9.45
2017-11-26T02:33:35.521Z,5.95
2017-11-26T02:36:16.796Z,7.15
2017-11-26T02:38:43.233Z,9.85
2017-11-26T02:41:09.643Z,8.90
2017-11-26T02:43:36.085Z,12.30
2017-11-26T02:46:03.290Z,9.73
2017-11-26T02:48:29.809Z,8.00
2017-11-26T02:50:56.308Z,7.50
2017-11-26T02:53:23.664Z,11.93
2017-11-26T02:55:51.575Z,6.53
2017-11-26T02:58:18.005Z,9.10
2017-11-26T03:00:45.181Z,5.40
2017-11-26T03:03:11.636Z,11.20
2017-11-26T03:05:38.139Z,6.43
2017-11-26T03:08:05.341Z,9.15
2017-11-26T03:10:31.768Z,10.20
2017-11-26T03:12:58.221Z,12.20
2017-11-26T03:15:24.696Z,12.45
2017-11-26T03:17:51.842Z,7.68
2017-11-26T03:20:18.295Z,10.05
2017-11-26T03:22:45.434Z,12.98
2017-11-26T03:25:11.872Z,10.05
2017-11-26T03:27:38.301Z,8.80
2017-11-26T03:30:04.719Z,11.38
2017-11-26T03:32:31.145Z,4.45
2017-11-26T03:34:57.634Z,12.32
2017-11-26T03:37:24.047Z,18.37
2017-11-26T03:39:50.620Z,11.88
2017-11-26T03:42:17.835Z,12.40
2017-11-26T03:44:44.233Z,11.43
2017-11-26T03:47:10.657Z,10.07
2017-11-26T03:49:37.852Z,9.55
2017-11-26T03:52:04.275Z,5.00
2017-11-26T03:54:30.708Z,7.25
2017-11-26T03:56:57.156Z,7.87
2017-11-26T03:59:23.597Z,12.05
2017-11-26T04:01:49.980Z,7.75
2017-11-26T04:04:17.897Z,10.38
2017-11-26T04:06:44.374Z,7.37
2017-11-26T04:09:10.798Z,5.05
2017-11-26T04:11:37.236Z,8.85
2017-11-26T04:14:03.685Z,10.05
2017-11-26T04:16:30.108Z,8.10
2017-11-26T04:18:56.526Z,4.00
2017-11-26T04:21:22.969Z,9.57
2017-11-26T04:23:49.407Z,9.43
2017-11-26T04:26:15.989Z,7.72
2017-11-26T04:28:42.425Z,4.37
2017-11-26T04:31:08.969Z,5.97
2017-11-26T04:33:35.422Z,7.50
2017-11-26T04:36:03.379Z,5.95
2017-11-26T04:38:29.780Z,7.75
2017-11-26T04:40:56.261Z,7.40
2017-11-26T04:43:22.678Z,7.87
2017-11-26T04:45:49.105Z,11.00
2017-11-26T04:48:15.527Z,9.45
2017-11-26T04:50:42.009Z,8.68
2017-11-26T04:53:08.456Z,7.43
2017-11-26T04:55:34.868Z,5.80
2017-11-26T04:58:01.296Z,10.40
2017-11-26T05:00:27.868Z,5.35
2017-11-26T05:02:54.313Z,3.95
2017-11-26T05:05:20.714Z,4.37
2017-11-26T05:07:47.225Z,11.20
2017-11-26T05:10:14.402Z,6.15
2017-11-26T05:12:40.837Z,6.65
2017-11-26T05:15:07.300Z,4.80
2017-11-26T05:17:33.709Z,8.00
2017-11-26T05:20:00.412Z,4.20
2017-11-26T05:22:26.808Z,7.75
2017-11-26T05:24:53.260Z,3.67
2017-11-26T05:27:19.697Z,5.25
2017-11-26T05:29:46.125Z,7.60
2017-11-26T05:32:12.951Z,3.70
2017-11-26T05:34:39.396Z,6.20
2017-11-26T05:37:05.895Z,1.90
2017-11-26T05:39:32.338Z,3.65
2017-11-26T05:41:59.672Z,4.40
2017-11-26T05:44:26.124Z,2.37
2017-11-26T05:46:52.556Z,4.65
2017-11-26T05:49:18.992Z,5.37
2017-11-26T05:51:45.417Z,4.30
2017-11-26T05:54:11.901Z,4.25
2017-11-26T05:56:39.128Z,2.85
2017-11-26T05:59:05.564Z,2.20
2017-11-26T06:01:31.972Z,2.15
2017-11-26T06:03:58.431Z,2.95
2017-11-26T06:06:25.057Z,3.85
2017-11-26T06:08:51.510Z,3.05
2017-11-26T06:11:17.969Z,3.30
2017-11-26T06:13:44.456Z,5.28
2017-11-26T06:16:11.253Z,2.85
2017-11-26T06:18:38.435Z,2.60
2017-11-26T06:21:05.656Z,1.70
2017-11-26T06:23:32.152Z,0.88
2017-11-26T06:25:58.580Z,4.22
2017-11-26T06:28:25.728Z,2.20
2017-11-26T06:30:52.930Z,3.60
2017-11-26T06:33:19.500Z,2.28
2017-11-26T06:35:45.944Z,4.00
2017-11-26T06:38:12.517Z,1.62
2017-11-26T06:40:38.928Z,8.38
2017-11-26T06:43:05.368Z,4.37
2017-11-26T06:45:31.800Z,4.35
2017-11-26T06:47:58.393Z,2.15
2017-11-26T06:50:24.849Z,4.15
2017-11-26T06:52:51.314Z,3.70
2017-11-26T06:55:17.739Z,3.17
2017-11-26T06:57:44.416Z,3.92
2017-11-26T07:00:11.594Z,3.37
2017-11-26T07:02:38.008Z,3.00
2017-11-26T07:05:05.175Z,4.57
2017-11-26T07:07:32.365Z,6.00
2017-11-26T07:09:58.802Z,4.40
2017-11-26T07:12:25.253Z,6.75
2017-11-26T07:14:51.693Z,3.72
2017-11-26T07:17:18.157Z,5.03
2017-11-26T07:19:44.563Z,3.50
2017-11-26T07:22:10.980Z,6.65
2017-11-26T07:24:37.444Z,2.58
2017-11-26T07:27:03.915Z,2.55
2017-11-26T07:29:30.312Z,3.20
2017-11-26T07:31:56.780Z,3.60
2017-11-26T07:34:23.323Z,3.80
2017-11-26T07:36:49.804Z,3.50
2017-11-26T07:39:16.345Z,6.00
2017-11-26T07:41:42.777Z,3.40
2017-11-26T07:44:09.958Z,2.30
2017-11-26T07:46:36.405Z,3.08
2017-11-26T07:49:02.866Z,2.60
2017-11-26T07:51:29.276Z,3.08
2017-11-26T07:53:55.729Z,3.10
2017-11-26T07:56:22.160Z,2.58
2017-11-26T07:58:48.617Z,1.80
2017-11-26T08:01:15.019Z,1.83
2017-11-26T08:03:41.491Z,2.85
2017-11-26T08:06:07.904Z,5.28
2017-11-26T08:08:34.320Z,8.93
2017-11-26T08:11:01.672Z,4.97
2017-11-26T08:13:28.884Z,3.42
2017-11-26T08:15:55.304Z,4.28
2017-11-26T08:18:21.754Z,5.30
2017-11-26T08:20:48.201Z,2.55
2017-11-26T08:23:14.659Z,3.47
2017-11-26T08:25:41.101Z,3.50
2017-11-26T08:28:07.622Z,3.28
2017-11-26T08:30:34.084Z,2.80
2017-11-26T08:33:00.513Z,3.25
2017-11-26T08:35:26.953Z,2.72
2017-11-26T08:37:53.376Z,3.20
2017-11-26T08:40:19.810Z,3.90
2017-11-26T08:42:46.232Z,3.33
2017-11-26T08:45:12.677Z,3.50
2017-11-26T08:47:39.123Z,7.25
2017-11-26T08:50:05.921Z,7.50
2017-11-26T08:52:33.097Z,5.78
2017-11-26T08:54:59.524Z,8.85
2017-11-26T08:57:25.979Z,4.03
2017-11-26T08:59:52.482Z,7.35
2017-11-26T09:02:19.693Z,8.65
2017-11-26T09:04:46.125Z,4.45
2017-11-26T09:07:15.452Z,2.78
2017-11-26T09:09:41.910Z,6.55
2017-11-26T09:12:08.349Z,3.45
2017-11-26T09:14:36.464Z,6.28
2017-11-26T09:17:02.886Z,4.25
2017-11-26T09:19:30.133Z,4.28
2017-11-26T09:21:57.292Z,4.95
2017-11-26T09:24:24.512Z,5.97
2017-11-26T09:26:50.994Z,6.93
2017-11-26T09:29:25.361Z,6.82
2017-11-26T09:31:51.829Z,5.37
2017-11-26T09:34:19.012Z,4.07
2017-11-26T09:36:45.494Z,5.03
2017-11-26T09:39:12.051Z,4.20
2017-11-26T09:41:38.485Z,6.62
2017-11-26T09:44:04.988Z,4.43
2017-11-26T09:46:31.425Z,5.85
2017-11-26T09:48:57.885Z,4.85
2017-11-26T09:51:24.370Z,6.82
2017-11-26T09:53:51.529Z,3.20
2017-11-26T09:56:18.728Z,5.32
2017-11-26T09:58:45.213Z,3.65
2017-11-26T10:01:11.616Z,3.70
2017-11-26T10:03:38.107Z,4.05
2017-11-26T10:06:05.342Z,2.40
2017-11-26T10:08:31.822Z,4.85
2017-11-26T10:10:58.251Z,3.72
2017-11-26T10:13:24.737Z,2.95
2017-11-26T10:15:51.444Z,3.22
2017-11-26T10:18:17.871Z,3.12
2017-11-26T10:20:44.317Z,3.60
2017-11-26T10:23:10.772Z,4.75
2017-11-26T10:25:37.244Z,5.82
2017-11-26T10:28:03.748Z,9.45
2017-11-26T10:30:37.326Z,3.03
2017-11-26T10:33:04.540Z,3.58
2017-11-26T10:35:31.021Z,6.50
2017-11-26T10:37:57.493Z,3.53
2017-11-26T10:40:23.959Z,2.35
2017-11-26T10:42:51.317Z,4.07
2017-11-26T10:45:17.757Z,3.55
2017-11-26T10:47:44.225Z,3.83
2017-11-26T10:50:11.372Z,5.22
2017-11-26T10:52:37.857Z,6.65
2017-11-26T10:55:04.268Z,2.42
2017-11-26T10:57:31.452Z,3.85
2017-11-26T10:59:57.964Z,3.30
2017-11-26T11:02:25.112Z,4.97
2017-11-26T11:04:52.291Z,5.97
2017-11-26T11:07:18.751Z,4.07
2017-11-26T11:09:45.244Z,7.05
2017-11-26T11:12:12.500Z,6.05
2017-11-26T11:14:39.793Z,2.50
2017-11-26T11:17:06.264Z,4.60
2017-11-26T11:19:32.705Z,5.15
2017-11-26T11:21:59.169Z,4.97
2017-11-26T11:24:25.614Z,3.80
2017-11-26T11:26:52.849Z,4.75
2017-11-26T11:29:19.330Z,5.60
2017-11-26T11:31:45.766Z,4.80
2017-11-26T11:34:12.170Z,2.12
2017-11-26T11:36:38.609Z,5.18
2017-11-26T11:39:05.237Z,2.37
2017-11-26T11:41:31.698Z,4.30
2017-11-26T11:43:58.135Z,3.40
2017-11-26T11:46:24.560Z,5.10
2017-11-26T11:48:51.176Z,2.80
2017-11-26T11:51:17.638Z,4.37
2017-11-26T11:53:44.135Z,5.85
2017-11-26T11:56:10.580Z,4.78
2017-11-26T11:58:37.085Z,1.87
2017-11-26T12:01:04.341Z,8.30
2017-11-26T12:03:31.494Z,4.87
2017-11-26T12:06:05.751Z,2.20
2017-11-26T12:08:32.222Z,4.65
2017-11-26T12:10:58.699Z,4.22
2017-11-26T12:13:25.929Z,2.20
2017-11-26T12:15:53.155Z,3.22
2017-11-26T12:18:19.589Z,4.82
2017-11-26T12:20:46.047Z,5.78
2017-11-26T12:23:12.535Z,5.68
2017-11-26T12:25:39.002Z,3.55
2017-11-26T12:28:05.465Z,4.15
2017-11-26T12:30:31.917Z,3.00
2017-11-26T12:32:58.384Z,2.55
2017-11-26T12:35:25.604Z,3.95
2017-11-26T12:37:52.073Z,4.78
2017-11-26T12:40:19.361Z,4.28
2017-11-26T12:42:45.823Z,5.37
2017-11-26T12:45:13.100Z,5.50
2017-11-26T12:47:41.001Z,11.48
2017-11-26T12:50:08.181Z,10.05
2017-11-26T12:52:34.738Z,5.00
2017-11-26T12:55:01.280Z,7.57
2017-11-26T12:57:27.864Z,9.23
2017-11-26T12:59:54.402Z,10.15
2017-11-26T13:02:20.862Z,6.93
2017-11-26T13:04:48.025Z,7.97
2017-11-26T13:07:14.490Z,11.77
2017-11-26T13:09:41.158Z,12.25
2017-11-26T13:12:07.617Z,16.67
2017-11-26T13:14:34.240Z,9.05
2017-11-26T13:17:00.650Z,4.60
2017-11-26T13:19:27.111Z,7.20
2017-11-26T13:21:53.570Z,11.27
2017-11-26T13:24:20.057Z,6.93
2017-11-26T13:26:46.500Z,7.20
2017-11-26T13:29:12.999Z,6.15
2017-11-26T13:31:39.401Z,10.80
2017-11-26T13:34:05.919Z,7.03
2017-11-26T13:36:32.389Z,7.87
2017-11-26T13:38:58.828Z,7.80
2017-11-26T13:41:25.284Z,8.50
2017-11-26T13:43:51.734Z,5.20
2017-11-26T13:46:18.957Z,7.10
2017-11-26T13:48:45.442Z,6.53
2017-11-26T13:51:12.648Z,7.03
2017-11-26T13:53:46.783Z,9.52
2017-11-26T13:56:13.258Z,6.43
2017-11-26T13:58:40.680Z,4.78
2017-11-26T14:01:07.128Z,6.25
2017-11-26T14:03:33.607Z,6.03
2017-11-26T14:06:00.039Z,4.78
2017-11-26T14:08:27.233Z,6.30
2017-11-26T14:10:53.704Z,4.95
2017-11-26T14:13:20.139Z,4.00
2017-11-26T14:15:46.649Z,4.95
2017-11-26T14:18:13.144Z,4.35
2017-11-26T14:20:40.349Z,6.28
2017-11-26T14:23:06.769Z,4.78
2017-11-26T14:25:33.343Z,3.60
2017-11-26T14:28:00.050Z,5.20
2017-11-26T14:30:27.254Z,4.12
2017-11-26T14:32:53.658Z,7.47
2017-11-26T14:35:20.085Z,8.68
2017-11-26T14:37:46.556Z,6.12
2017-11-26T14:40:13.029Z,6.85
2017-11-26T14:42:40.473Z,7.00
2017-11-26T14:45:07.016Z,9.65
2017-11-26T14:47:34.379Z,7.70
2017-11-26T14:50:01.623Z,15.88
2017-11-26T14:52:28.064Z,23.45
2017-11-26T14:54:54.558Z,6.57
2017-11-26T14:57:21.017Z,5.43
2017-11-26T14:59:47.644Z,9.48
2017-11-26T15:02:14.090Z,3.95
2017-11-26T15:04:40.518Z,3.22
2017-11-26T15:07:07.168Z,5.85
2017-11-26T15:09:33.605Z,4.00
2017-11-26T15:12:00.088Z,5.28
2017-11-26T15:14:26.619Z,5.00
2017-11-26T15:16:53.081Z,5.60
2017-11-26T15:19:20.302Z,3.83
2017-11-26T15:21:46.768Z,3.60
2017-11-26T15:24:13.273Z,13.07
2017-11-26T15:26:39.742Z,12.98
2017-11-26T15:29:06.177Z,11.50
2017-11-26T15:31:32.718Z,16.60
2017-11-26T15:33:59.179Z,11.10
2017-11-26T15:36:25.643Z,10.35
2017-11-26T15:38:52.107Z,6.07
2017-11-26T15:41:18.550Z,2.60
2017-11-26T15:43:45.197Z,1.55
2017-11-26T15:46:11.683Z,6.10
2017-11-26T15:48:38.849Z,8.43
2017-11-26T15:51:05.274Z,5.78
2017-11-26T15:53:32.571Z,6.95
2017-11-26T15:55:59.029Z,6.50
2017-11-26T15:58:25.629Z,6.57
2017-11-26T16:00:52.115Z,5.70
2017-11-26T16:03:18.654Z,5.72
2017-11-26T16:05:45.171Z,5.37
2017-11-26T16:08:11.633Z,4.95
2017-11-26T16:10:39.007Z,6.97
2017-11-26T16:13:05.488Z,5.68
2017-11-26T16:15:34.404Z,8.10
2017-11-26T16:18:00.864Z,6.10
2017-11-26T16:20:27.328Z,6.97
2017-11-26T16:22:53.831Z,6.00
2017-11-26T16:25:20.282Z,8.32
2017-11-26T16:27:46.729Z,7.53
2017-11-26T16:30:13.263Z,8.00
2017-11-26T16:32:39.758Z,7.65
2017-11-26T16:35:06.222Z,5.60
2017-11-26T16:37:32.669Z,6.43
2017-11-26T16:39:59.125Z,6.53
2017-11-26T16:42:25.607Z,10.60
2017-11-26T16:44:52.960Z,8.50
2017-11-26T16:47:20.283Z,9.98
2017-11-26T16:49:46.751Z,11.50
2017-11-26T16:52:13.229Z,8.07
2017-11-26T16:54:39.641Z,6.70
2017-11-26T16:57:06.830Z,7.72
2017-11-26T16:59:33.401Z,6.87
2017-11-26T17:01:59.858Z,5.00
2017-11-26T17:04:26.329Z,8.23
2017-11-26T17:06:52.806Z,6.70
2017-11-26T17:09:19.325Z,8.88
2017-11-26T17:11:45.848Z,8.18
2017-11-26T17:14:12.403Z,4.03
2017-11-26T17:16:38.883Z,5.50
2017-11-26T17:19:05.402Z,6.03
2017-11-26T17:21:31.951Z,8.95
2017-11-26T17:23:59.367Z,5.43
2017-11-26T17:26:26.570Z,4.55
2017-11-26T17:28:53.047Z,6.90
2017-11-26T17:31:20.238Z,6.75
2017-11-26T17:33:46.693Z,9.13
2017-11-26T17:36:13.128Z,9.75
2017-11-26T17:38:39.706Z,6.40
2017-11-26T17:41:06.277Z,5.72
2017-11-26T17:43:33.526Z,10.27
2017-11-26T17:46:00.840Z,7.78
2017-11-26T17:48:27.322Z,14.68
2017-11-26T17:50:54.566Z,14.70
2017-11-26T17:53:21.218Z,21.23
2017-11-26T17:55:48.455Z,10.05
2017-11-26T17:58:15.075Z,9.30
2017-11-26T18:00:41.564Z,8.88
2017-11-26T18:03:08.786Z,6.85
2017-11-26T18:05:35.260Z,9.57
2017-11-26T18:08:02.589Z,7.65
2017-11-26T18:10:29.065Z,8.93
2017-11-26T18:12:56.279Z,7.68
2017-11-26T18:15:22.818Z,10.00
2017-11-26T18:17:49.323Z,6.90
2017-11-26T18:20:15.880Z,9.35
2017-11-26T18:22:42.507Z,7.55
2017-11-26T18:25:08.968Z,8.85
2017-11-26T18:27:35.457Z,10.40
2017-11-26T18:30:02.637Z,7.70
2017-11-26T18:32:29.121Z,11.85
2017-11-26T18:34:55.564Z,10.88
2017-11-26T18:37:22.142Z,5.00
2017-11-26T18:39:48.568Z,8.38
2017-11-26T18:42:15.880Z,7.60
2017-11-26T18:44:42.503Z,5.18
2017-11-26T18:47:08.945Z,3.35
2017-11-26T18:49:35.438Z,3.08
2017-11-26T18:52:02.624Z,4.15
2017-11-26T18:54:29.275Z,2.72
2017-11-26T18:56:55.770Z,13.30
2017-11-26T18:59:22.401Z,10.77
2017-11-26T19:01:48.852Z,4.18
2017-11-26T19:04:15.440Z,2.30
2017-11-26T19:06:41.908Z,2.55
2017-11-26T19:09:08.410Z,4.22
2017-11-26T19:11:34.897Z,3.85
2017-11-26T19:14:16.289Z,7.00
2017-11-26T19:16:42.956Z,5.10
2017-11-26T19:19:10.189Z,3.87
2017-11-26T19:21:36.677Z,5.22
2017-11-26T19:24:03.157Z,6.82
2017-11-26T19:26:29.683Z,6.95
2017-11-26T19:28:56.511Z,9.43
2017-11-26T19:31:23.174Z,3.37
2017-11-26T19:33:49.850Z,6.25
2017-11-26T19:36:17.127Z,4.57
2017-11-26T19:38:44.713Z,6.35
2017-11-26T19:41:11.438Z,3.47
2017-11-26T19:43:37.973Z,12.85
2017-11-26T19:46:05.221Z,4.57
2017-11-26T19:48:31.811Z,4.03
2017-11-26T19:50:58.278Z,7.85
2017-11-26T19:53:24.945Z,4.90
2017-11-26T19:55:52.201Z,8.90
2017-11-26T19:58:20.321Z,11.25
2017-11-26T20:00:46.905Z,17.27
2017-11-26T20:03:13.528Z,12.60
2017-11-26T20:05:40.121Z,9.30
2017-11-26T20:08:07.454Z,13.57
2017-11-26T20:10:34.689Z,4.55
2017-11-26T20:13:01.254Z,6.70
2017-11-26T20:15:28.576Z,7.93
2017-11-26T20:17:55.173Z,6.62
2017-11-26T20:20:24.307Z,4.25
2017-11-26T20:22:50.943Z,7.72
2017-11-26T20:25:17.517Z,9.38
2017-11-26T20:27:44.669Z,6.70
2017-11-26T20:30:11.321Z,6.78
2017-11-26T20:32:37.832Z,5.35
2017-11-26T20:35:09.388Z,6.00
2017-11-26T20:37:35.998Z,4.97
2017-11-26T20:40:02.602Z,7.32
2017-11-26T20:42:29.136Z,8.90
2017-11-26T20:44:55.909Z,7.05
2017-11-26T20:47:23.568Z,7.87
2017-11-26T20:49:50.227Z,3.62
2017-11-26T20:52:16.747Z,9.20
2017-11-26T20:54:43.273Z,10.10
2017-11-26T20:57:09.762Z,11.02
2017-11-26T20:59:36.359Z,7.68
2017-11-26T21:02:02.813Z,5.72
2017-11-26T21:04:29.443Z,6.50
2017-11-26T21:06:55.912Z,6.97
2017-11-26T21:09:23.318Z,5.60
2017-11-26T21:11:49.855Z,8.55
2017-11-26T21:14:16.344Z,6.45
2017-11-26T21:16:42.946Z,4.85
2017-11-26T21:19:09.617Z,11.75
2017-11-26T21:21:36.267Z,6.32
2017-11-26T21:24:02.763Z,7.53
2017-11-26T21:26:29.225Z,6.12
2017-11-26T21:28:56.042Z,4.80
2017-11-26T21:31:24.334Z,5.20
2017-11-26T21:33:50.913Z,5.43
2017-11-26T21:36:17.561Z,5.05
2017-11-26T21:38:45.547Z,3.30
2017-11-26T21:41:12.788Z,13.32
2017-11-26T21:43:39.432Z,4.57
2017-11-26T21:46:06.870Z,7.87
2017-11-26T21:48:33.587Z,5.15
2017-11-26T21:51:00.141Z,3.97
2017-11-26T21:53:26.734Z,7.70
2017-11-26T21:55:53.364Z,6.30
2017-11-26T21:58:19.900Z,5.47
2017-11-26T22:00:46.510Z,5.22
2017-11-26T22:03:13.088Z,6.53
2017-11-26T22:05:39.757Z,4.18
2017-11-26T22:08:07.054Z,4.12
2017-11-26T22:10:33.587Z,6.85
2017-11-26T22:13:00.110Z,7.35
2017-11-26T22:15:26.638Z,5.32
2017-11-26T22:17:53.841Z,3.95
2017-11-26T22:20:20.357Z,4.10
2017-11-26T22:22:46.902Z,4.53
2017-11-26T22:25:13.413Z,2.85
2017-11-26T22:27:40.690Z,5.57
2017-11-26T22:30:07.168Z,5.62
2017-11-26T22:32:33.749Z,6.45
2017-11-26T22:35:00.968Z,4.20
2017-11-26T22:37:27.495Z,5.37
2017-11-26T22:39:53.985Z,4.12
2017-11-26T22:42:21.214Z,6.30
2017-11-26T22:44:47.716Z,3.58
2017-11-26T22:47:14.262Z,8.15
2017-11-26T22:49:40.828Z,5.20
2017-11-26T22:52:07.353Z,6.65
2017-11-26T22:54:33.825Z,9.60
2017-11-26T22:57:00.297Z,5.57
2017-11-26T22:59:27.490Z,6.03
2017-11-26T23:01:53.933Z,6.00
2017-11-26T23:04:20.391Z,4.80
2017-11-26T23:06:46.947Z,7.22
2017-11-26T23:09:13.439Z,6.10
2017-11-26T23:11:39.873Z,4.43
2017-11-26T23:14:08.130Z,7.45
2017-11-26T23:16:35.317Z,7.12
2017-11-26T23:19:01.811Z,7.70
2017-11-26T23:21:29.047Z,9.75
2017-11-26T23:23:55.458Z,4.43
2017-11-26T23:26:22.050Z,6.30
2017-11-26T23:28:49.272Z,4.60
2017-11-26T23:31:15.717Z,7.75
2017-11-26T23:33:42.160Z,5.95
2017-11-26T23:36:08.792Z,6.07
2017-11-26T23:38:35.252Z,3.50
2017-11-26T23:41:01.709Z,6.93
2017-11-26T23:43:28.876Z,12.27
2017-11-26T23:45:55.384Z,7.70
2017-11-26T23:48:21.795Z,3.85
2017-11-26T23:50:48.226Z,6.40
2017-11-26T23:53:14.664Z,8.55
2017-11-26T23:55:41.952Z,9.90
2017-11-26T23:58:16.156Z,4.97
